Eastern Shore: Past 24 Hour Conditions

 

North Cape

08:00 AM AST 26 November 2014
This table is a summary of hourly weather conditions for the past 24 hours.
Date / Time
(AST)
Wind(knots) Conditions Visibility(km) Pressure(kPa) Air tempC) Relative humidity(%) Dew pointC)
26 November 2014
8:00 WSW 20 gust 25 N/A N/A 101.8 5 77 1
7:00 WSW 21 N/A N/A 101.6 5 76 1
6:00 WSW 23 N/A N/A 101.5 5 74 1
5:00 WSW 25 N/A N/A 101.4 6 72 1
4:00 WSW 23 N/A N/A 101.4 6 74 1
3:00 SW 19 N/A N/A 101.3 6 75 2
2:00 WSW 19 N/A N/A 101.2 5 78 2
1:00 WSW 21 N/A N/A 101.0 6 74 2
0:00 SW 15 N/A N/A 101.0 6 78 2
25 November 2014
23:00 WSW 16 N/A N/A 100.9 6 77 2
22:00 WSW 18 N/A N/A 100.9 7 75 2
21:00 SW 15 N/A N/A 100.8 6 84 4
20:00 WSW 13 N/A N/A 100.7 6 82 3
19:00 WSW 11 N/A N/A 100.7 6 85 4
18:00 W 11 N/A N/A 100.6 7 79 3
17:00 WNW 13 N/A N/A 100.6 6 81 3
16:00 WSW 14 N/A N/A 100.5 8 79 4
15:00 WSW 17 N/A N/A 100.3 8 81 5
14:00 WSW 16 N/A N/A 100.3 8 84 6
13:00 SW 22 N/A N/A 100.2 10 80 7
12:00 SW 22 N/A N/A 100.2 11 79 7
11:00 SW 20 gust 26 N/A N/A 100.1 12 83 9
10:00 SW 20 gust 27 N/A N/A 100.1 12 83 9
9:00 SW 19 gust 24 N/A N/A 100.1 12 83 9
8:00 SW 20 gust 27 N/A N/A 100.0 12 85 10
 
Map of Atlantic - Newfoundland marine weather areas Southwestern Grand Banks - 44138 Banquereau - 44139 Tail of the Bank - 44140 Nickerson Bank - 44251 Northeast Burgeo Bank - 44255 Blanc-Sablon Airport Cap Whittle Chevery Natashquan Airport Heath Point Miscou Island Grand Étang Ingonish Beach North Mountain St.Paul Island J.A. Douglas McCurdy Sydney Airport Charlottetown Airport East Point North Cape Argentia Bonavista Burgeo Cape Race Corner Brook Daniel's Harbour Englee Ferolle Point La Scie Port aux Basques Rocky Harbour Sagona Island St. Anthony Airport St. John's Int'l Airport St. Lawrence Stephenville Airport Twillingate Winterland Wreckhouse Cartwright Airport Mary's Harbour Grates Cove Pool's Island Marticot Island Long Pond Îles de la Madeleine Airport
Legend: buoyBuoy land stationLand Station